Time;durP1;ratioP1;P1;durP2;ratioP2;P2;SDS_P1;SDS_P2;PMS_P1;PMS_P2;Temp;Humidity;BMP_temperature;BMP_pressure;BME280_temperature;BME280_humidity;BME280_pressure;Samples;Min_cycle;Max_cycle;Signal;HPM_P1;HPM_P2
2022/11/03 00:00:47;;;;;;;37.90;16.40;;;10.30;99.90;;;;;;4147622;28;20879;-62
2022/11/03 00:02:48;;;;;;;46.43;18.20;;;10.40;99.90;;;;;;4147382;28;20046;-59
2022/11/03 00:04:49;;;;;;;41.17;17.93;;;10.40;99.90;;;;;;4147515;28;20554;-61
2022/11/03 00:06:53;;;;;;;32.93;15.70;;;10.40;99.90;;;;;;4127974;28;20112;-61
2022/11/03 00:08:58;;;;;;;34.17;15.43;;;10.40;99.90;;;;;;4146747;28;20088;-63
2022/11/03 00:11:13;;;;;;;31.60;14.37;;;10.40;99.90;;;;;;4146325;28;20030;-61
2022/11/03 00:13:14;;;;;;;33.57;15.03;;;10.40;99.90;;;;;;4147039;28;20088;-61
2022/11/03 00:15:15;;;;;;;34.23;15.10;;;10.40;99.90;;;;;;4148225;28;20041;-62
2022/11/03 00:17:16;;;;;;;32.00;13.47;;;10.40;99.90;;;;;;4162747;28;20091;-62
2022/11/03 00:19:17;;;;;;;30.77;14.53;;;10.40;99.90;;;;;;4162446;28;20036;-62
2022/11/03 00:21:18;;;;;;;28.97;13.87;;;10.40;99.90;;;;;;4163261;28;20045;-62
2022/11/03 00:23:20;;;;;;;27.77;13.27;;;10.40;99.90;;;;;;4162740;28;20064;-61
2022/11/03 00:25:21;;;;;;;25.30;12.43;;;10.40;99.90;;;;;;4163163;28;20041;-63
2022/11/03 00:27:22;;;;;;;24.77;12.13;;;10.40;99.90;;;;;;4163188;28;20045;-61
2022/11/03 00:29:23;;;;;;;26.03;13.03;;;10.40;99.90;;;;;;4162337;28;20037;-61
2022/11/03 00:31:33;;;;;;;34.07;13.63;;;10.40;99.90;;;;;;4161380;28;20013;-61
2022/11/03 00:33:35;;;;;;;39.47;15.17;;;10.40;99.90;;;;;;4162269;28;20030;-61
2022/11/03 00:35:36;;;;;;;27.43;12.67;;;10.40;99.90;;;;;;4159386;28;20030;-60
2022/11/03 00:37:38;;;;;;;35.73;14.83;;;10.40;99.90;;;;;;4145316;28;20026;-61
2022/11/03 00:39:39;;;;;;;33.93;13.13;;;10.40;99.90;;;;;;4146923;28;20092;-62
2022/11/03 00:41:58;;;;;;;33.80;15.37;;;10.40;99.90;;;;;;4145791;28;20038;-61
2022/11/03 00:43:59;;;;;;;32.77;12.70;;;10.30;99.90;;;;;;4146802;28;20080;-61
2022/11/03 00:46:01;;;;;;;31.23;13.77;;;10.30;99.90;;;;;;4132686;28;20089;-60
2022/11/03 00:50:21;;;;;;;34.63;13.70;;;10.30;99.90;;;;;;4146061;28;20092;-61
2022/11/03 00:52:22;;;;;;;33.27;15.50;;;10.30;99.90;;;;;;4145945;28;20371;-61
2022/11/03 00:54:24;;;;;;;32.07;13.83;;;10.30;99.90;;;;;;4146137;28;20037;-60
2022/11/03 00:56:31;;;;;;;27.70;12.00;;;10.30;99.90;;;;;;4146765;28;20097;-60
2022/11/03 01:01:35;;;;;;;34.47;14.83;;;10.30;99.90;;;;;;4148503;28;20076;-61
2022/11/03 01:03:39;;;;;;;26.47;12.53;;;10.30;99.90;;;;;;4159146;28;20022;-60
2022/11/03 01:08:04;;;;;;;26.87;13.70;;;10.40;99.90;;;;;;4145678;28;20099;-60
2022/11/03 01:10:06;;;;;;;27.30;13.33;;;10.40;99.90;;;;;;4146449;28;20141;-60
2022/11/03 01:12:13;;;;;;;31.57;14.50;;;10.40;99.90;;;;;;4145228;28;20441;-58
2022/11/03 01:14:15;;;;;;;33.10;15.57;;;10.40;99.90;;;;;;4128566;28;20116;-61
2022/11/03 01:16:16;;;;;;;45.17;20.50;;;10.30;99.90;;;;;;4144947;28;20041;-61
2022/11/03 01:18:17;;;;;;;41.43;19.70;;;10.40;99.90;;;;;;4146286;28;20367;-60
2022/11/03 01:20:18;;;;;;;31.20;15.13;;;10.40;99.90;;;;;;4145197;28;20363;-61
2022/11/03 01:22:21;;;;;;;28.23;13.93;;;10.40;99.90;;;;;;4147231;28;20033;-61
2022/11/03 01:24:23;;;;;;;27.60;13.07;;;10.30;99.90;;;;;;4159049;28;20685;-63
2022/11/03 01:26:24;;;;;;;27.53;13.30;;;10.40;99.90;;;;;;4156096;28;20074;-61
2022/11/03 01:28:25;;;;;;;32.80;14.10;;;10.30;99.90;;;;;;4145330;28;20482;-60
2022/11/03 01:30:26;;;;;;;31.03;13.33;;;10.30;99.90;;;;;;4145760;28;20077;-60
2022/11/03 01:32:27;;;;;;;29.03;13.40;;;10.30;99.90;;;;;;4145284;28;20034;-60
2022/11/03 01:34:28;;;;;;;28.50;12.70;;;10.30;99.90;;;;;;4145405;28;20451;-62
2022/11/03 01:36:29;;;;;;;27.40;12.50;;;10.30;99.90;;;;;;4145711;28;20037;-61
2022/11/03 01:38:32;;;;;;;23.93;11.50;;;10.30;99.90;;;;;;4143821;28;20421;-61
2022/11/03 01:40:33;;;;;;;24.17;12.03;;;10.30;99.90;;;;;;4145879;28;20022;-61
2022/11/03 01:42:34;;;;;;;26.43;13.20;;;10.30;99.90;;;;;;4144158;28;20135;-61
2022/11/03 01:44:47;;;;;;;26.53;12.67;;;10.30;99.90;;;;;;4145322;28;20041;-61
2022/11/03 01:47:00;;;;;;;28.40;12.80;;;10.40;99.90;;;;;;4150788;28;20045;-62
2022/11/03 01:49:32;;;;;;;27.67;12.67;;;10.40;99.90;;;;;;4162095;28;20104;-61
2022/11/03 01:51:35;;;;;;;29.77;12.57;;;10.40;99.90;;;;;;4161052;28;20033;-62
2022/11/03 01:53:41;;;;;;;33.50;14.30;;;10.40;99.90;;;;;;4162051;28;20137;-61
2022/11/03 01:55:43;;;;;;;26.13;12.23;;;10.40;99.90;;;;;;4160590;28;20432;-61
2022/11/03 01:57:54;;;;;;;25.50;12.13;;;10.30;99.90;;;;;;4162205;28;20432;-61
2022/11/03 01:59:57;;;;;;;29.63;13.77;;;10.40;99.90;;;;;;4158519;28;20017;-64
2022/11/03 02:01:58;;;;;;;30.53;13.27;;;10.30;99.90;;;;;;4158498;28;20478;-61
2022/11/03 02:04:06;;;;;;;29.20;13.73;;;10.30;99.90;;;;;;4152896;28;20021;-63
2022/11/03 02:06:08;;;;;;;27.40;13.00;;;10.30;99.90;;;;;;4134127;28;20145;-61
2022/11/03 02:08:24;;;;;;;25.60;12.37;;;10.30;99.90;;;;;;4144539;28;20076;-61
2022/11/03 02:10:25;;;;;;;26.93;13.33;;;10.30;99.90;;;;;;4145636;28;20038;-61
2022/11/03 02:12:26;;;;;;;29.57;13.83;;;10.30;99.90;;;;;;4143207;28;20053;-61
2022/11/03 02:14:27;;;;;;;30.87;14.10;;;10.30;99.90;;;;;;4144687;28;20041;-61
2022/11/03 02:16:31;;;;;;;27.10;13.20;;;10.30;99.90;;;;;;4144085;28;20101;-62
2022/11/03 02:18:33;;;;;;;30.73;13.63;;;10.30;99.90;;;;;;4145559;28;20084;-60
2022/11/03 02:20:35;;;;;;;28.33;12.70;;;10.40;99.90;;;;;;4143627;28;20042;-60
2022/11/03 02:22:58;;;;;;;24.60;12.60;;;10.40;99.90;;;;;;4127231;28;20462;-63
2022/11/03 02:25:11;;;;;;;28.37;13.23;;;10.40;99.90;;;;;;4144849;28;20030;-61
2022/11/03 02:27:12;;;;;;;32.43;13.40;;;10.40;99.90;;;;;;4145503;28;20560;-61
2022/11/03 02:29:13;;;;;;;26.97;12.90;;;10.40;99.90;;;;;;4144363;28;20034;-62
2022/11/03 02:31:34;;;;;;;27.77;12.67;;;10.40;99.90;;;;;;4145199;28;20038;-62
2022/11/03 02:33:50;;;;;;;26.38;12.60;;;10.40;99.90;;;;;;4145215;28;20129;-61
2022/11/03 02:35:58;;;;;;;27.93;13.17;;;10.40;99.90;;;;;;4145544;28;20080;-62
2022/11/03 02:38:03;;;;;;;29.90;12.90;;;10.50;99.90;;;;;;4143472;28;20127;-61
2022/11/03 02:40:17;;;;;;;29.70;13.73;;;10.50;99.90;;;;;;4144470;28;20030;-59
2022/11/03 02:42:20;;;;;;;34.07;13.73;;;10.50;99.90;;;;;;4144171;28;20092;-61
2022/11/03 02:44:21;;;;;;;26.63;12.60;;;10.50;99.90;;;;;;4145010;28;20068;-62
2022/11/03 02:46:25;;;;;;;28.40;12.73;;;10.50;99.90;;;;;;4143468;28;20088;-61
2022/11/03 02:48:26;;;;;;;28.50;12.97;;;10.50;99.90;;;;;;4144922;28;20096;-63
2022/11/03 02:50:33;;;;;;;29.47;13.90;;;10.50;99.90;;;;;;4144521;28;20018;-62
2022/11/03 02:52:39;;;;;;;23.93;12.37;;;10.50;99.90;;;;;;4144344;28;20046;-61
2022/11/03 02:54:43;;;;;;;30.20;13.23;;;10.50;99.90;;;;;;4144609;28;20037;-61
2022/11/03 02:57:17;;;;;;;33.53;13.23;;;10.50;99.90;;;;;;4144642;28;20018;-61
2022/11/03 02:59:24;;;;;;;25.77;12.27;;;10.50;99.90;;;;;;4141406;28;20042;-61
2022/11/03 03:01:47;;;;;;;30.37;12.60;;;10.60;99.90;;;;;;4143450;28;20064;-65
2022/11/03 03:03:57;;;;;;;27.83;12.43;;;10.60;99.90;;;;;;4145014;28;20030;-62
2022/11/03 03:06:09;;;;;;;32.50;13.33;;;10.60;99.90;;;;;;4146929;28;20450;-63
2022/11/03 03:08:11;;;;;;;29.87;13.87;;;10.50;99.90;;;;;;4156062;28;20278;-62
2022/11/03 03:10:19;;;;;;;26.67;12.43;;;10.60;99.90;;;;;;4161464;28;20026;-62
2022/11/03 03:12:21;;;;;;;33.67;15.03;;;10.50;99.90;;;;;;4159431;28;20037;-62
2022/11/03 03:14:34;;;;;;;24.53;13.03;;;10.50;99.90;;;;;;4157902;28;20442;-60
2022/11/03 03:16:44;;;;;;;26.07;12.53;;;10.50;99.90;;;;;;4143839;28;20034;-60
2022/11/03 03:18:47;;;;;;;30.70;13.87;;;10.50;99.90;;;;;;4144836;28;20030;-60
2022/11/03 03:20:51;;;;;;;31.33;13.87;;;10.50;99.90;;;;;;4143987;28;20072;-61
2022/11/03 03:22:59;;;;;;;32.87;13.50;;;10.40;99.90;;;;;;4144632;28;20072;-59
2022/11/03 03:25:26;;;;;;;27.73;13.77;;;10.40;99.90;;;;;;4144578;28;20091;-62
2022/11/03 03:27:30;;;;;;;25.77;11.63;;;10.40;99.90;;;;;;4145126;28;20046;-63
2022/11/03 03:29:38;;;;;;;28.00;13.30;;;10.40;99.90;;;;;;4146911;28;20374;-61
2022/11/03 03:31:46;;;;;;;28.13;13.03;;;10.40;99.90;;;;;;4147414;28;20680;-62
2022/11/03 03:33:49;;;;;;;32.87;14.60;;;10.40;99.90;;;;;;4146983;28;20033;-61
2022/11/03 03:35:52;;;;;;;24.60;13.00;;;10.40;99.90;;;;;;4146704;28;20053;-65
2022/11/03 03:37:57;;;;;;;27.53;13.07;;;10.30;99.90;;;;;;4147200;28;20103;-62
2022/11/03 03:40:02;;;;;;;22.80;12.43;;;10.40;99.90;;;;;;4147292;28;20056;-62
2022/11/03 03:42:06;;;;;;;24.40;12.73;;;10.40;99.90;;;;;;4146641;28;20033;-62
2022/11/03 03:44:08;;;;;;;26.97;13.20;;;10.40;99.90;;;;;;4145981;28;20487;-61
2022/11/03 03:46:12;;;;;;;25.40;13.57;;;10.40;99.90;;;;;;4150816;28;20026;-62
2022/11/03 03:48:13;;;;;;;23.60;12.67;;;10.40;99.90;;;;;;4162832;28;20100;-61
2022/11/03 03:50:15;;;;;;;25.23;12.10;;;10.40;99.90;;;;;;4163025;28;20504;-61
2022/11/03 03:52:17;;;;;;;23.93;12.47;;;10.50;99.90;;;;;;4162529;28;20473;-61
2022/11/03 03:54:18;;;;;;;27.50;13.37;;;10.50;99.90;;;;;;4164111;28;20030;-61
2022/11/03 03:56:30;;;;;;;27.30;13.40;;;10.50;99.90;;;;;;4161763;28;20099;-62
2022/11/03 03:58:31;;;;;;;24.80;11.37;;;10.50;99.90;;;;;;4153215;28;20458;-62
2022/11/03 04:00:32;;;;;;;27.10;13.33;;;10.50;99.90;;;;;;4159742;28;20584;-63
2022/11/03 04:02:34;;;;;;;23.77;11.40;;;10.50;99.90;;;;;;4162382;28;20045;-64
2022/11/03 04:04:35;;;;;;;29.20;12.00;;;10.50;99.90;;;;;;4160891;28;20468;-64
2022/11/03 04:06:36;;;;;;;29.53;12.07;;;10.50;99.90;;;;;;4163163;28;20088;-61
2022/11/03 04:08:37;;;;;;;25.93;12.37;;;10.50;99.90;;;;;;4160974;28;20080;-61
2022/11/03 04:10:38;;;;;;;23.67;11.60;;;10.50;99.90;;;;;;4159454;28;20041;-61
2022/11/03 04:22:17;;;;;;;33.20;15.80;;;10.40;99.90;;;;;;4162469;28;20087;-62
2022/11/03 04:24:18;;;;;;;25.77;12.93;;;10.40;99.90;;;;;;4162586;28;20051;-62
2022/11/03 04:26:23;;;;;;;22.13;11.40;;;10.40;99.90;;;;;;4162745;28;20480;-63
2022/11/03 04:28:26;;;;;;;23.77;11.07;;;10.40;99.90;;;;;;4163436;28;20083;-62
2022/11/03 04:30:27;;;;;;;20.53;10.77;;;10.50;99.90;;;;;;4161968;28;20586;-62
2022/11/03 04:32:28;;;;;;;22.97;11.47;;;10.50;99.90;;;;;;4163247;28;20033;-62
2022/11/03 04:34:30;;;;;;;22.47;11.33;;;10.50;99.90;;;;;;4159866;28;20080;-60
2022/11/03 04:36:31;;;;;;;22.60;9.97;;;10.50;99.90;;;;;;4162103;28;20029;-62
2022/11/03 04:38:33;;;;;;;22.93;10.63;;;10.50;99.90;;;;;;4162305;28;20067;-62
2022/11/03 04:40:34;;;;;;;20.77;10.43;;;10.50;99.90;;;;;;4159798;28;20103;-62
2022/11/03 04:42:35;;;;;;;20.77;11.10;;;10.50;99.90;;;;;;4161865;28;20021;-62
2022/11/03 04:44:36;;;;;;;20.23;10.27;;;10.50;99.90;;;;;;4158457;28;20092;-62
2022/11/03 04:46:37;;;;;;;20.60;10.03;;;10.40;99.90;;;;;;4150440;28;20057;-63
2022/11/03 04:48:39;;;;;;;21.10;9.33;;;10.40;99.90;;;;;;4145523;28;20100;-62
2022/11/03 04:50:41;;;;;;;18.40;9.90;;;10.40;99.90;;;;;;4146687;28;20038;-62
2022/11/03 04:52:42;;;;;;;23.20;11.47;;;10.40;99.90;;;;;;4145440;28;20029;-62
2022/11/03 04:54:45;;;;;;;20.63;10.30;;;10.40;99.90;;;;;;4146781;28;20042;-62
2022/11/03 04:56:46;;;;;;;23.40;11.67;;;10.40;99.90;;;;;;4145159;28;20033;-62
2022/11/03 04:58:47;;;;;;;20.07;11.23;;;10.40;99.90;;;;;;4146024;28;20170;-62
2022/11/03 05:00:53;;;;;;;22.97;12.27;;;10.40;99.90;;;;;;4151059;28;20498;-62
2022/11/03 05:02:55;;;;;;;23.83;12.27;;;10.40;99.90;;;;;;4159054;28;20045;-63
2022/11/03 05:04:56;;;;;;;26.93;12.10;;;10.40;99.90;;;;;;4144665;28;20049;-62
2022/11/03 05:06:57;;;;;;;27.17;12.67;;;10.40;99.90;;;;;;4146035;28;20425;-63
2022/11/03 05:09:04;;;;;;;22.03;12.17;;;10.40;99.90;;;;;;4144650;28;20042;-62
2022/11/03 05:11:32;;;;;;;24.53;12.47;;;10.40;99.90;;;;;;4145467;28;20485;-62
2022/11/03 05:13:33;;;;;;;24.47;11.93;;;10.40;99.90;;;;;;4154845;28;20405;-62
2022/11/03 05:15:39;;;;;;;27.87;12.67;;;10.40;99.90;;;;;;4159384;28;20041;-62
2022/11/03 05:17:40;;;;;;;23.83;12.07;;;10.30;99.90;;;;;;4158578;28;20100;-62
2022/11/03 05:19:42;;;;;;;25.90;12.87;;;10.30;99.90;;;;;;4161563;28;20025;-62
2022/11/03 05:21:44;;;;;;;26.70;12.90;;;10.30;99.90;;;;;;4160278;28;20629;-61
2022/11/03 05:23:56;;;;;;;24.93;12.53;;;10.30;99.90;;;;;;4161555;28;20037;-63
2022/11/03 05:25:58;;;;;;;27.57;13.13;;;10.20;99.90;;;;;;4160719;28;20045;-62
2022/11/03 05:27:59;;;;;;;24.33;12.27;;;10.30;99.90;;;;;;4160071;28;20115;-62
2022/11/03 05:30:00;;;;;;;27.47;13.00;;;10.20;99.90;;;;;;4160950;28;20037;-62
2022/11/03 05:32:02;;;;;;;28.47;14.13;;;10.20;99.90;;;;;;4160788;28;20025;-63
2022/11/03 05:34:35;;;;;;;25.90;13.33;;;10.30;99.90;;;;;;4161402;28;20481;-62
2022/11/03 05:36:37;;;;;;;28.27;14.20;;;10.30;99.90;;;;;;4160454;28;20107;-63
2022/11/03 05:38:38;;;;;;;24.00;13.03;;;10.30;99.90;;;;;;4160750;28;20090;-62
2022/11/03 05:40:40;;;;;;;29.27;14.63;;;10.30;99.90;;;;;;4160882;28;20079;-63
2022/11/03 05:42:44;;;;;;;24.77;13.73;;;10.30;99.90;;;;;;4152759;28;20026;-62
2022/11/03 05:44:45;;;;;;;30.43;14.10;;;10.30;99.90;;;;;;4125941;28;20495;-62
2022/11/03 05:46:46;;;;;;;25.50;13.87;;;10.30;99.90;;;;;;4152972;28;20054;-60
2022/11/03 05:48:48;;;;;;;22.87;12.30;;;10.30;99.90;;;;;;4132459;28;20049;-61
2022/11/03 05:50:49;;;;;;;31.17;12.60;;;10.40;99.90;;;;;;4147747;28;20422;-62
2022/11/03 05:53:17;;;;;;;25.67;14.03;;;10.40;99.90;;;;;;4148981;28;20371;-66
2022/11/03 05:55:39;;;;;;;23.77;12.83;;;10.40;99.90;;;;;;4144412;28;20037;-61
2022/11/03 05:57:40;;;;;;;26.87;12.40;;;10.50;99.90;;;;;;4145133;28;20038;-62
2022/11/03 05:59:44;;;;;;;27.67;14.03;;;10.50;99.90;;;;;;4150687;28;20059;-60
2022/11/03 06:01:45;;;;;;;50.10;26.60;;;10.50;99.90;;;;;;4148105;28;20038;-61
2022/11/03 06:03:47;;;;;;;29.50;16.30;;;10.50;99.90;;;;;;4145708;28;20419;-62
2022/11/03 06:05:48;;;;;;;30.20;15.20;;;10.60;99.90;;;;;;4143492;28;20081;-62
2022/11/03 06:07:53;;;;;;;28.97;15.80;;;10.60;99.90;;;;;;4145258;28;20034;-61
2022/11/03 06:09:54;;;;;;;35.67;18.47;;;10.70;99.90;;;;;;4143734;28;20026;-62
2022/11/03 06:11:57;;;;;;;44.60;20.83;;;10.70;99.90;;;;;;4146318;28;20099;-63
2022/11/03 06:13:58;;;;;;;38.70;18.67;;;10.70;99.90;;;;;;4160342;28;20099;-63
2022/11/03 06:16:25;;;;;;;37.80;19.33;;;10.80;99.90;;;;;;4157952;28;20473;-63
2022/11/03 06:18:33;;;;;;;34.40;17.60;;;10.80;99.90;;;;;;4159713;28;20084;-62
2022/11/03 06:20:35;;;;;;;30.17;16.10;;;10.90;99.90;;;;;;4161018;28;20037;-62
2022/11/03 06:22:37;;;;;;;32.63;16.20;;;10.90;99.90;;;;;;4159759;28;20437;-62
2022/11/03 06:24:38;;;;;;;31.73;16.70;;;10.90;99.90;;;;;;4160448;28;20037;-62
2022/11/03 06:26:41;;;;;;;30.07;16.23;;;11.00;99.90;;;;;;4160540;28;20080;-64
2022/11/03 06:28:44;;;;;;;36.17;15.43;;;11.00;99.90;;;;;;4142434;28;20457;-63
2022/11/03 06:30:45;;;;;;;28.77;15.13;;;11.00;99.90;;;;;;4160000;28;20865;-62
2022/11/03 06:32:47;;;;;;;25.07;14.43;;;11.00;99.90;;;;;;4160157;28;20033;-63
2022/11/03 06:34:50;;;;;;;28.30;14.23;;;10.90;99.90;;;;;;4161207;28;20452;-62
2022/11/03 06:36:52;;;;;;;26.83;13.97;;;10.90;99.90;;;;;;4159509;28;20041;-62
2022/11/03 06:39:00;;;;;;;28.67;14.23;;;10.90;99.90;;;;;;4160606;28;20033;-64
2022/11/03 06:41:01;;;;;;;22.03;12.83;;;10.80;99.90;;;;;;4159211;28;20037;-63
2022/11/03 06:43:15;;;;;;;26.70;13.60;;;10.80;99.90;;;;;;4160289;28;20045;-64
2022/11/03 06:45:22;;;;;;;27.03;14.17;;;10.80;99.90;;;;;;4159388;28;20045;-62
2022/11/03 06:47:26;;;;;;;28.83;14.20;;;10.80;99.90;;;;;;4161190;28;20612;-61
2022/11/03 06:49:33;;;;;;;27.10;13.23;;;10.90;99.90;;;;;;4159483;28;20049;-63
2022/11/03 06:51:35;;;;;;;26.67;12.53;;;10.90;99.90;;;;;;4160465;28;20049;-62
2022/11/03 06:53:36;;;;;;;21.73;12.10;;;10.90;99.90;;;;;;4160088;28;20034;-62
2022/11/03 06:55:39;;;;;;;28.40;14.50;;;11.00;99.90;;;;;;4160493;28;20477;-62
2022/11/03 06:57:43;;;;;;;24.60;12.77;;;11.10;99.90;;;;;;4160029;28;20163;-65
2022/11/03 06:59:44;;;;;;;23.03;12.60;;;11.20;99.90;;;;;;4160276;28;20092;-64
2022/11/03 07:01:51;;;;;;;24.93;13.37;;;11.20;99.90;;;;;;4159456;28;20091;-63
2022/11/03 07:04:00;;;;;;;23.40;12.00;;;11.10;99.90;;;;;;4163805;28;20535;-64
2022/11/03 07:06:23;;;;;;;22.17;11.80;;;11.20;99.90;;;;;;4163438;28;20029;-64
2022/11/03 07:08:30;;;;;;;24.10;12.13;;;11.20;99.90;;;;;;4161664;28;20061;-61
2022/11/03 07:10:33;;;;;;;22.30;11.33;;;11.30;99.90;;;;;;4162504;28;20042;-63
2022/11/03 07:12:34;;;;;;;25.33;13.27;;;11.30;99.90;;;;;;4164310;28;20367;-62
2022/11/03 07:14:35;;;;;;;22.57;11.60;;;11.40;99.90;;;;;;4162106;28;20468;-62
2022/11/03 07:16:46;;;;;;;23.47;11.80;;;11.40;99.90;;;;;;4163119;28;20099;-62
2022/11/03 07:18:47;;;;;;;22.85;11.38;;;11.40;99.90;;;;;;4163136;28;20021;-62
2022/11/03 07:20:49;;;;;;;22.97;11.87;;;11.40;99.90;;;;;;4163835;28;20111;-64
2022/11/03 07:22:52;;;;;;;21.67;12.43;;;11.50;99.90;;;;;;4163477;28;20903;-62
2022/11/03 07:25:02;;;;;;;23.93;11.80;;;11.50;99.90;;;;;;4163419;28;20101;-62
2022/11/03 07:27:20;;;;;;;37.97;15.18;;;11.60;99.90;;;;;;4163327;28;20017;-63
2022/11/03 07:29:26;;;;;;;101.37;47.53;;;11.80;99.90;;;;;;4163148;28;20440;-62
2022/11/03 07:31:27;;;;;;;65.77;32.40;;;11.90;99.90;;;;;;4162766;28;20088;-63
2022/11/03 07:33:30;;;;;;;41.87;20.00;;;12.00;99.90;;;;;;4163603;28;20461;-64
2022/11/03 07:35:35;;;;;;;22.87;11.60;;;12.10;99.90;;;;;;4162600;28;20099;-63
2022/11/03 07:37:36;;;;;;;22.77;11.93;;;12.10;99.90;;;;;;4162740;28;20535;-62
2022/11/03 07:39:37;;;;;;;18.67;9.87;;;12.00;99.90;;;;;;4163750;28;20038;-62
2022/11/03 07:41:39;;;;;;;17.03;9.00;;;12.00;99.90;;;;;;4161993;28;20453;-64
2022/11/03 07:43:40;;;;;;;17.53;8.50;;;11.80;99.90;;;;;;4163701;28;20896;-61
2022/11/03 07:45:51;;;;;;;18.27;9.63;;;11.80;99.90;;;;;;4161994;28;20037;-63
2022/11/03 07:47:52;;;;;;;20.37;10.37;;;11.70;99.90;;;;;;4163530;28;20119;-62
2022/11/03 07:49:55;;;;;;;16.43;9.87;;;11.60;99.90;;;;;;4162639;28;20087;-64
2022/11/03 07:51:58;;;;;;;19.20;9.80;;;11.60;99.90;;;;;;4163728;28;20657;-62
2022/11/03 07:54:18;;;;;;;19.73;10.20;;;11.60;99.90;;;;;;4161654;28;20072;-63
2022/11/03 07:56:21;;;;;;;18.98;9.98;;;11.60;99.90;;;;;;4163442;28;20087;-63
2022/11/03 07:58:32;;;;;;;21.07;9.73;;;11.70;99.90;;;;;;4162301;28;20033;-61
2022/11/03 08:00:33;;;;;;;20.80;10.30;;;11.70;99.90;;;;;;4163709;28;20037;-63
2022/11/03 08:02:58;;;;;;;19.73;9.93;;;11.70;99.90;;;;;;4162252;28;20025;-62
2022/11/03 08:04:59;;;;;;;20.17;11.07;;;11.70;99.90;;;;;;4163522;28;20031;-62
2022/11/03 08:07:01;;;;;;;22.37;10.77;;;11.80;99.90;;;;;;4161493;28;20099;-62
2022/11/03 08:09:03;;;;;;;20.87;11.73;;;11.80;99.90;;;;;;4162243;28;20037;-62
2022/11/03 08:11:04;;;;;;;24.13;11.67;;;11.80;99.90;;;;;;4162133;28;20568;-62
2022/11/03 08:13:06;;;;;;;23.50;12.10;;;11.80;99.90;;;;;;4162118;28;20072;-62
2022/11/03 08:15:07;;;;;;;21.53;12.07;;;11.80;99.90;;;;;;4162014;28;20025;-62
2022/11/03 08:17:08;;;;;;;18.63;10.90;;;11.80;99.90;;;;;;4161551;28;20551;-65
2022/11/03 08:19:10;;;;;;;23.00;11.00;;;11.80;99.90;;;;;;4161319;28;20030;-61
2022/11/03 08:21:11;;;;;;;25.40;12.17;;;11.80;99.90;;;;;;4162691;28;20029;-63
2022/11/03 08:23:12;;;;;;;20.53;11.73;;;11.80;99.90;;;;;;4162754;28;20037;-63
2022/11/03 08:25:14;;;;;;;25.73;12.23;;;11.80;99.90;;;;;;4161535;28;20030;-62
2022/11/03 08:27:15;;;;;;;23.47;12.27;;;11.80;99.90;;;;;;4162968;28;20033;-64
2022/11/03 08:29:16;;;;;;;22.30;12.57;;;11.80;99.90;;;;;;4161420;28;20087;-63
2022/11/03 08:31:17;;;;;;;23.43;12.30;;;11.80;99.90;;;;;;4162054;28;20092;-63
2022/11/03 08:33:19;;;;;;;24.57;12.53;;;11.80;99.90;;;;;;4161812;28;20172;-63
2022/11/03 08:35:20;;;;;;;24.87;12.30;;;11.80;99.90;;;;;;4162935;28;20108;-63
2022/11/03 08:37:21;;;;;;;27.03;11.90;;;11.80;99.90;;;;;;4161111;28;20052;-63
2022/11/03 08:39:22;;;;;;;24.20;12.87;;;11.80;99.90;;;;;;4162217;28;20095;-63
2022/11/03 08:41:23;;;;;;;21.00;12.53;;;11.80;99.90;;;;;;4160846;28;20107;-62
2022/11/03 08:43:25;;;;;;;24.43;12.83;;;11.80;99.90;;;;;;4162049;28;20164;-62
2022/11/03 08:45:26;;;;;;;29.00;13.77;;;11.80;99.90;;;;;;4161911;28;20094;-62
2022/11/03 08:47:27;;;;;;;33.00;13.73;;;11.70;99.90;;;;;;4162342;28;20111;-62
2022/11/03 08:49:28;;;;;;;25.13;11.83;;;11.70;99.90;;;;;;4161013;28;20053;-63
2022/11/03 08:51:29;;;;;;;26.50;13.23;;;11.70;99.90;;;;;;4162199;28;20103;-64
2022/11/03 08:53:30;;;;;;;26.30;12.80;;;11.50;99.90;;;;;;4161396;28;20037;-64
2022/11/03 08:55:31;;;;;;;29.20;13.90;;;11.50;99.90;;;;;;4161031;28;20041;-65
2022/11/03 08:57:33;;;;;;;31.27;13.93;;;11.50;99.90;;;;;;4162355;28;20025;-62
2022/11/03 08:59:34;;;;;;;25.57;12.47;;;11.60;99.90;;;;;;4161407;28;20075;-64
2022/11/03 09:01:35;;;;;;;25.80;12.37;;;11.60;99.90;;;;;;4162450;28;20037;-64
2022/11/03 09:03:36;;;;;;;25.30;12.30;;;11.60;99.90;;;;;;4161228;28;20083;-61
2022/11/03 09:05:37;;;;;;;25.53;13.20;;;11.60;99.90;;;;;;4162230;28;20029;-63
2022/11/03 09:07:39;;;;;;;29.33;13.23;;;11.60;99.90;;;;;;4160401;28;20120;-61
2022/11/03 09:09:40;;;;;;;30.87;13.13;;;11.60;99.90;;;;;;4161617;28;20107;-61
2022/11/03 09:11:41;;;;;;;23.60;12.30;;;11.60;99.90;;;;;;4161219;28;20029;-61
2022/11/03 09:13:42;;;;;;;25.90;13.77;;;11.70;99.90;;;;;;4144023;28;20100;-63
2022/11/03 09:15:44;;;;;;;26.80;13.47;;;11.80;99.90;;;;;;4160352;28;20107;-62
2022/11/03 09:17:45;;;;;;;24.63;12.40;;;11.80;99.90;;;;;;4161799;28;20034;-62
2022/11/03 09:19:46;;;;;;;24.40;13.73;;;11.80;99.90;;;;;;4161362;28;20018;-62
2022/11/03 09:21:47;;;;;;;23.83;13.37;;;11.90;99.90;;;;;;4160456;28;20095;-63
2022/11/03 09:23:48;;;;;;;27.67;12.83;;;11.90;99.90;;;;;;4161389;28;20037;-64
2022/11/03 09:25:49;;;;;;;25.03;14.07;;;12.00;99.90;;;;;;4159699;28;20046;-62
2022/11/03 09:27:51;;;;;;;30.90;13.97;;;12.00;99.90;;;;;;4161628;28;20087;-62
2022/11/03 09:29:52;;;;;;;24.97;12.07;;;12.00;99.90;;;;;;4159531;28;20045;-65
2022/11/03 09:31:53;;;;;;;22.53;12.43;;;12.10;99.90;;;;;;4161015;28;20079;-62
2022/11/03 09:33:54;;;;;;;22.63;12.47;;;12.10;99.90;;;;;;4160088;28;20480;-62
2022/11/03 09:35:56;;;;;;;29.63;13.73;;;12.10;99.90;;;;;;4161798;28;20025;-62
2022/11/03 09:37:57;;;;;;;23.57;13.10;;;12.10;99.90;;;;;;4160150;28;20107;-63
2022/11/03 09:39:58;;;;;;;30.83;13.33;;;12.20;99.90;;;;;;4161021;28;20405;-61
2022/11/03 09:42:02;;;;;;;24.67;12.97;;;12.20;99.90;;;;;;4160591;28;20033;-64
2022/11/03 09:44:03;;;;;;;28.80;14.70;;;12.20;99.90;;;;;;4161934;28;20083;-62
2022/11/03 09:46:04;;;;;;;22.17;13.57;;;12.10;99.90;;;;;;4160531;28;20025;-61
2022/11/03 09:48:09;;;;;;;32.30;13.93;;;12.00;99.90;;;;;;4161481;28;20045;-63
2022/11/03 09:50:14;;;;;;;25.27;13.77;;;11.90;99.90;;;;;;4160862;28;20087;-62
2022/11/03 09:52:19;;;;;;;26.67;14.17;;;11.90;99.90;;;;;;4161262;28;20067;-61
2022/11/03 09:54:20;;;;;;;30.07;14.20;;;11.90;99.90;;;;;;4160512;28;20038;-60
2022/11/03 09:56:24;;;;;;;24.03;12.87;;;11.90;99.90;;;;;;4160382;28;20041;-63
2022/11/03 09:58:26;;;;;;;26.73;13.93;;;12.00;99.90;;;;;;4161146;28;20511;-62
2022/11/03 10:00:27;;;;;;;28.00;13.90;;;12.00;99.90;;;;;;4159899;28;20049;-62
2022/11/03 10:02:30;;;;;;;33.97;14.63;;;12.00;99.90;;;;;;4160684;28;20379;-61
2022/11/03 10:04:31;;;;;;;28.53;13.87;;;12.00;99.90;;;;;;4160519;28;20075;-62
2022/11/03 10:06:33;;;;;;;26.00;14.47;;;12.00;99.90;;;;;;4161350;28;20025;-63
2022/11/03 10:08:36;;;;;;;27.80;13.63;;;12.00;99.90;;;;;;4159111;28;20108;-63
2022/11/03 10:10:39;;;;;;;33.30;14.90;;;12.00;99.90;;;;;;4161398;28;20536;-63
2022/11/03 10:12:40;;;;;;;27.40;14.37;;;12.00;99.90;;;;;;4159109;28;20486;-62
2022/11/03 10:14:43;;;;;;;29.27;14.57;;;12.00;99.90;;;;;;4161364;28;20482;-64
2022/11/03 10:16:52;;;;;;;27.13;13.90;;;12.00;99.90;;;;;;4159977;28;20034;-63
2022/11/03 10:18:53;;;;;;;25.23;13.70;;;12.00;99.90;;;;;;4161244;28;20429;-65
2022/11/03 10:20:57;;;;;;;29.30;13.67;;;12.00;99.90;;;;;;4158939;28;20091;-61
2022/11/03 10:22:58;;;;;;;31.47;14.53;;;12.10;99.90;;;;;;4143247;28;20092;-62
2022/11/03 10:25:29;;;;;;;44.53;14.20;;;12.20;99.90;;;;;;4159075;28;20111;-62
2022/11/03 10:27:30;;;;;;;28.30;13.45;;;12.20;99.90;;;;;;4160614;28;20033;-63
2022/11/03 10:29:32;;;;;;;32.20;14.60;;;12.30;99.90;;;;;;4159760;28;20391;-61
2022/11/03 10:31:36;;;;;;;29.13;14.33;;;12.30;99.90;;;;;;4160862;28;20445;-63
2022/11/03 10:33:49;;;;;;;26.00;13.83;;;12.30;99.90;;;;;;4159971;28;20442;-61
2022/11/03 10:35:50;;;;;;;24.97;13.23;;;12.30;99.90;;;;;;4143013;28;20137;-61
2022/11/03 10:37:51;;;;;;;24.67;13.60;;;12.30;99.90;;;;;;4159348;28;20037;-63
2022/11/03 10:39:55;;;;;;;24.30;13.27;;;12.30;99.90;;;;;;4161075;28;20140;-64
2022/11/03 10:41:58;;;;;;;29.27;14.70;;;12.20;99.90;;;;;;4160530;28;20076;-62
2022/11/03 10:44:11;;;;;;;26.13;13.50;;;12.20;99.90;;;;;;4159853;28;20409;-63
2022/11/03 10:46:19;;;;;;;27.47;15.13;;;12.20;99.90;;;;;;4159890;28;20041;-61
2022/11/03 10:48:21;;;;;;;31.27;14.43;;;12.20;99.90;;;;;;4159604;28;20041;-62